createdAt,value
2023-03-22T00:01:20.809Z,3.30
2023-03-22T00:03:49.530Z,3.60
2023-03-22T00:06:17.651Z,3.33
2023-03-22T00:08:46.173Z,3.00
2023-03-22T00:11:14.281Z,3.63
2023-03-22T00:13:44.016Z,2.97
2023-03-22T00:16:13.897Z,3.33
2023-03-22T00:18:42.073Z,3.60
2023-03-22T00:21:13.468Z,2.85
2023-03-22T00:23:41.793Z,3.05
2023-03-22T00:26:10.229Z,3.00
2023-03-22T00:28:38.292Z,2.80
2023-03-22T00:31:07.305Z,3.50
2023-03-22T00:33:37.724Z,2.72
2023-03-22T00:36:08.390Z,3.17
2023-03-22T00:38:42.961Z,2.72
2023-03-22T00:41:12.944Z,3.13
2023-03-22T00:43:41.161Z,2.97
2023-03-22T00:46:09.322Z,3.72
2023-03-22T00:48:39.007Z,2.95
2023-03-22T00:51:07.404Z,2.60
2023-03-22T00:53:36.514Z,2.72
2023-03-22T00:56:05.626Z,2.30
2023-03-22T00:58:33.603Z,3.13
2023-03-22T01:01:01.807Z,2.95
2023-03-22T01:03:29.769Z,3.40
2023-03-22T01:05:59.372Z,2.90
2023-03-22T01:08:33.683Z,2.85
2023-03-22T01:11:02.358Z,3.65
2023-03-22T01:13:30.348Z,3.55
2023-03-22T01:15:58.291Z,3.58
2023-03-22T01:18:26.193Z,2.80
2023-03-22T01:20:54.115Z,3.10
2023-03-22T01:23:23.409Z,3.00
2023-03-22T01:25:51.369Z,3.05
2023-03-22T01:28:19.254Z,2.97
2023-03-22T01:30:47.271Z,3.35
2023-03-22T01:33:15.373Z,3.75
2023-03-22T01:35:43.403Z,2.90
2023-03-22T01:38:11.566Z,2.90
2023-03-22T01:40:41.390Z,3.28
2023-03-22T01:43:14.558Z,2.80
2023-03-22T01:45:45.913Z,3.50
2023-03-22T01:48:20.493Z,3.17
2023-03-22T01:50:57.561Z,3.38
2023-03-22T01:53:27.413Z,3.10
2023-03-22T01:55:58.941Z,2.97
2023-03-22T01:58:27.287Z,3.20
2023-03-22T02:00:55.914Z,3.13
2023-03-22T02:03:33.423Z,3.00
2023-03-22T02:06:01.359Z,2.90
2023-03-22T02:08:30.272Z,3.45
2023-03-22T02:10:59.806Z,3.78
2023-03-22T02:13:42.597Z,2.50
2023-03-22T02:16:24.353Z,4.63
2023-03-22T02:19:02.934Z,3.03
2023-03-22T02:21:58.749Z,3.33
2023-03-22T02:24:55.687Z,3.00
2023-03-22T02:27:52.387Z,2.40
2023-03-22T02:30:39.258Z,3.10
2023-03-22T02:33:31.086Z,2.63
2023-03-22T02:36:16.619Z,3.10
2023-03-22T02:39:08.139Z,2.88
2023-03-22T02:41:48.290Z,3.53
2023-03-22T02:44:26.687Z,2.60
2023-03-22T02:47:03.212Z,2.25
2023-03-22T02:49:37.446Z,2.10
2023-03-22T02:52:17.600Z,2.45
2023-03-22T02:54:53.831Z,2.00
2023-03-22T02:57:28.249Z,2.45
2023-03-22T02:59:58.786Z,2.92
2023-03-22T03:02:29.747Z,2.20
2023-03-22T03:04:59.203Z,2.63
2023-03-22T03:07:30.012Z,1.98
2023-03-22T03:09:59.776Z,2.05
2023-03-22T03:12:30.293Z,1.98
2023-03-22T03:14:58.406Z,1.95
2023-03-22T03:17:37.272Z,2.50
2023-03-22T03:20:24.315Z,2.72
2023-03-22T03:23:01.265Z,2.50
2023-03-22T03:25:38.468Z,3.13
2023-03-22T03:28:16.097Z,2.60
2023-03-22T03:30:51.909Z,1.88
2023-03-22T03:33:22.854Z,2.25
2023-03-22T03:35:56.061Z,2.35
2023-03-22T03:38:27.668Z,2.50
2023-03-22T03:41:00.590Z,2.05
2023-03-22T03:43:28.730Z,2.07
2023-03-22T03:45:57.025Z,2.38
2023-03-22T03:48:27.409Z,2.05
2023-03-22T03:50:57.250Z,2.33
2023-03-22T03:53:25.460Z,1.98
2023-03-22T03:55:53.379Z,2.13
2023-03-22T03:58:22.721Z,1.95
2023-03-22T04:00:51.744Z,3.13
2023-03-22T04:03:19.721Z,2.00
2023-03-22T04:05:47.645Z,2.00
2023-03-22T04:08:15.647Z,1.65
2023-03-22T04:10:44.040Z,1.67
2023-03-22T04:13:11.929Z,2.28
2023-03-22T04:15:41.214Z,2.05
2023-03-22T04:18:09.812Z,1.65
2023-03-22T04:20:39.346Z,1.92
2023-03-22T04:23:07.541Z,1.88
2023-03-22T04:25:38.069Z,1.83
2023-03-22T04:28:06.484Z,1.90
2023-03-22T04:30:36.300Z,2.15
2023-03-22T04:33:07.324Z,1.73
2023-03-22T04:35:36.186Z,1.60
2023-03-22T04:38:04.131Z,1.95
2023-03-22T04:40:36.566Z,2.08
2023-03-22T04:43:04.789Z,2.35
2023-03-22T04:45:35.081Z,1.17
2023-03-22T04:48:03.034Z,1.90
2023-03-22T04:50:32.332Z,1.63
2023-03-22T04:53:00.381Z,1.80
2023-03-22T04:55:28.231Z,1.70
2023-03-22T04:57:56.099Z,2.17
2023-03-22T05:00:24.123Z,2.03
2023-03-22T05:02:52.190Z,2.08
2023-03-22T05:05:20.155Z,1.63
2023-03-22T05:07:49.827Z,1.60
2023-03-22T05:10:17.810Z,1.75
2023-03-22T05:12:46.286Z,1.70
2023-03-22T05:15:14.238Z,1.55
2023-03-22T05:17:42.155Z,2.08
2023-03-22T05:20:11.645Z,1.60
2023-03-22T05:22:40.778Z,2.03
2023-03-22T05:25:11.875Z,2.00
2023-03-22T05:27:39.776Z,2.03
2023-03-22T05:30:09.928Z,2.47
2023-03-22T05:32:43.112Z,3.50
2023-03-22T05:35:11.396Z,3.00
2023-03-22T05:37:39.372Z,2.35
2023-03-22T05:40:10.053Z,2.35
2023-03-22T05:42:39.347Z,2.33
2023-03-22T05:45:08.348Z,2.45
2023-03-22T05:47:36.220Z,2.55
2023-03-22T05:50:04.188Z,2.30
2023-03-22T05:52:32.068Z,3.58
2023-03-22T05:54:59.952Z,3.10
2023-03-22T05:57:30.109Z,4.00
2023-03-22T05:59:59.432Z,3.05
2023-03-22T06:02:27.321Z,2.53
2023-03-22T06:04:55.340Z,2.58
2023-03-22T06:07:23.369Z,2.28
2023-03-22T06:09:51.218Z,2.75
2023-03-22T06:12:22.666Z,2.30
2023-03-22T06:14:50.561Z,2.63
2023-03-22T06:17:20.058Z,3.10
2023-03-22T06:19:48.023Z,2.35
2023-03-22T06:22:16.062Z,2.10
2023-03-22T06:24:44.182Z,2.42
2023-03-22T06:27:12.193Z,2.47
2023-03-22T06:29:40.225Z,10.75
2023-03-22T06:32:08.232Z,6.25
2023-03-22T06:34:37.886Z,3.90
2023-03-22T06:37:08.291Z,2.78
2023-03-22T06:39:36.153Z,2.90
2023-03-22T06:42:04.083Z,3.47
2023-03-22T06:44:31.961Z,2.38
2023-03-22T06:46:59.841Z,1.80
2023-03-22T06:49:27.986Z,3.00
2023-03-22T06:51:57.233Z,2.38
2023-03-22T06:54:25.074Z,1.70
2023-03-22T06:56:52.953Z,2.00
2023-03-22T06:59:20.901Z,3.40
2023-03-22T07:01:49.060Z,3.00
2023-03-22T07:04:16.994Z,2.30
2023-03-22T07:06:44.956Z,1.20
2023-03-22T07:09:14.212Z,1.60
2023-03-22T07:11:42.117Z,1.33
2023-03-22T07:14:10.036Z,1.65
2023-03-22T07:16:38.056Z,1.50
2023-03-22T07:19:06.188Z,1.23
2023-03-22T07:21:34.392Z,1.45
2023-03-22T07:24:02.313Z,1.20
2023-03-22T07:26:31.721Z,1.45
2023-03-22T07:28:59.606Z,2.40
2023-03-22T07:31:27.519Z,3.33
2023-03-22T07:33:55.375Z,3.13
2023-03-22T07:36:25.803Z,3.35
2023-03-22T07:38:53.700Z,3.55
2023-03-22T07:41:24.143Z,2.95
2023-03-22T07:44:02.192Z,2.63
2023-03-22T07:46:35.794Z,3.28
2023-03-22T07:49:03.690Z,2.35
2023-03-22T07:51:31.614Z,1.98
2023-03-22T07:53:59.501Z,1.83
2023-03-22T07:56:27.533Z,1.20
2023-03-22T07:58:56.872Z,0.90
2023-03-22T08:01:24.808Z,1.35
2023-03-22T08:03:52.758Z,1.00
2023-03-22T08:06:21.658Z,0.52
2023-03-22T08:08:49.752Z,1.05
2023-03-22T08:11:17.635Z,0.70
2023-03-22T08:13:45.643Z,0.80
2023-03-22T08:16:14.977Z,0.70
2023-03-22T08:18:44.414Z,0.77
2023-03-22T08:21:13.285Z,0.52
2023-03-22T08:23:42.449Z,0.73
2023-03-22T08:26:11.152Z,0.50
2023-03-22T08:28:39.063Z,0.63
2023-03-22T08:31:14.019Z,0.73
2023-03-22T08:33:44.564Z,0.75
2023-03-22T08:36:15.181Z,0.75
2023-03-22T08:38:45.329Z,0.60
2023-03-22T08:41:13.433Z,0.85
2023-03-22T08:43:41.406Z,0.68
2023-03-22T08:46:09.959Z,1.23
2023-03-22T08:48:38.571Z,0.77
2023-03-22T08:51:08.336Z,0.95
2023-03-22T08:53:36.561Z,0.60
2023-03-22T08:56:04.753Z,0.40
2023-03-22T08:58:32.597Z,0.80
2023-03-22T09:01:00.660Z,0.70
2023-03-22T09:03:28.590Z,0.57
2023-03-22T09:05:56.510Z,0.55
2023-03-22T09:08:26.096Z,1.13
2023-03-22T09:10:53.993Z,1.10
2023-03-22T09:13:23.179Z,0.75
2023-03-22T09:15:51.906Z,0.93
2023-03-22T09:18:20.324Z,0.73
2023-03-22T09:20:48.258Z,0.88
2023-03-22T09:23:16.233Z,1.15
2023-03-22T09:25:46.366Z,0.70
2023-03-22T09:28:14.817Z,0.60
2023-03-22T09:30:42.965Z,1.13
2023-03-22T09:33:10.998Z,1.30
2023-03-22T09:35:43.050Z,1.30
2023-03-22T09:38:12.246Z,1.05
2023-03-22T09:40:51.406Z,1.20
2023-03-22T09:43:20.709Z,1.40
2023-03-22T09:45:52.799Z,0.75
2023-03-22T09:48:23.700Z,1.00
2023-03-22T09:50:53.919Z,1.00
2023-03-22T09:53:25.604Z,0.70
2023-03-22T09:56:00.318Z,1.10
2023-03-22T09:58:34.231Z,1.10
2023-03-22T10:01:06.560Z,1.30
2023-03-22T10:04:01.418Z,0.57
2023-03-22T10:06:30.780Z,1.15
2023-03-22T10:09:09.204Z,0.80
2023-03-22T10:11:46.134Z,0.80
2023-03-22T10:14:31.179Z,1.00
2023-03-22T10:17:03.828Z,0.88
2023-03-22T10:19:37.006Z,0.88
2023-03-22T10:22:07.839Z,0.85
2023-03-22T10:24:39.731Z,0.82
2023-03-22T10:27:17.127Z,1.10
2023-03-22T10:29:49.639Z,0.88
2023-03-22T10:32:20.105Z,0.80
2023-03-22T10:34:49.464Z,0.90
2023-03-22T10:37:23.556Z,0.80
2023-03-22T10:39:55.641Z,0.85
2023-03-22T10:42:28.081Z,0.80
2023-03-22T10:45:01.686Z,0.95
2023-03-22T10:47:34.986Z,0.80
2023-03-22T10:50:06.028Z,1.02
2023-03-22T10:52:44.018Z,1.00
2023-03-22T10:55:14.755Z,1.02
2023-03-22T10:57:52.213Z,1.08
2023-03-22T11:00:24.290Z,1.25
2023-03-22T11:02:54.635Z,1.30
2023-03-22T11:05:25.880Z,1.20
2023-03-22T11:07:54.945Z,1.42
2023-03-22T11:10:29.313Z,1.15
2023-03-22T11:13:18.001Z,1.08
2023-03-22T11:15:53.613Z,2.75
2023-03-22T11:18:21.788Z,2.00
2023-03-22T11:20:59.971Z,1.20
2023-03-22T11:23:32.718Z,1.10
2023-03-22T11:26:09.753Z,1.13
2023-03-22T11:28:43.650Z,1.58
2023-03-22T11:31:13.413Z,1.35
2023-03-22T11:33:56.014Z,1.40
2023-03-22T11:36:24.525Z,1.77
2023-03-22T11:38:59.448Z,1.27
2023-03-22T11:41:29.433Z,1.30
2023-03-22T11:44:02.935Z,1.70
2023-03-22T11:46:32.081Z,1.48
2023-03-22T11:49:03.143Z,1.60
2023-03-22T11:51:33.609Z,1.30
2023-03-22T11:54:10.494Z,1.95
2023-03-22T11:56:42.854Z,1.42
2023-03-22T11:59:16.769Z,1.30
2023-03-22T12:01:50.153Z,2.05
2023-03-22T12:04:23.819Z,1.48
2023-03-22T12:09:29.473Z,1.42
2023-03-22T12:12:00.112Z,0.90
2023-03-22T12:14:32.158Z,1.30
2023-03-22T12:17:07.761Z,1.15
2023-03-22T12:19:46.656Z,1.30
2023-03-22T12:22:17.167Z,0.70
2023-03-22T12:24:45.405Z,1.15
2023-03-22T12:27:18.990Z,1.30
2023-03-22T12:29:53.755Z,1.10
2023-03-22T12:32:26.623Z,1.15
2023-03-22T12:35:09.235Z,1.13
2023-03-22T12:37:47.524Z,0.80
2023-03-22T12:40:23.349Z,1.30
2023-03-22T12:43:00.347Z,0.82
2023-03-22T12:45:32.881Z,1.30
2023-03-22T12:48:07.326Z,1.17
2023-03-22T12:50:39.895Z,1.75
2023-03-22T12:53:12.788Z,0.98
2023-03-22T12:55:42.474Z,1.13
2023-03-22T12:58:14.220Z,1.38
2023-03-22T13:00:46.932Z,0.90
2023-03-22T13:03:24.606Z,0.77
2023-03-22T13:06:02.807Z,0.82
2023-03-22T13:09:04.608Z,1.00
2023-03-22T13:11:32.769Z,0.90
2023-03-22T13:14:00.668Z,1.10
2023-03-22T13:16:53.271Z,1.15
2023-03-22T13:19:31.566Z,1.02
2023-03-22T13:22:17.020Z,0.77
2023-03-22T13:25:13.988Z,1.10
2023-03-22T13:27:51.273Z,0.75
2023-03-22T13:30:25.336Z,0.70
2023-03-22T13:32:56.721Z,1.33
2023-03-22T13:35:28.380Z,0.75
2023-03-22T13:38:03.305Z,1.23
2023-03-22T13:40:37.099Z,1.10
2023-03-22T13:43:26.174Z,1.23
2023-03-22T13:46:06.232Z,1.40
2023-03-22T13:48:54.200Z,1.35
2023-03-22T13:51:30.293Z,1.15
2023-03-22T13:54:04.765Z,1.27
2023-03-22T13:56:47.884Z,1.27
2023-03-22T13:59:21.352Z,0.90
2023-03-22T14:01:52.741Z,1.08
2023-03-22T14:04:26.739Z,1.05
2023-03-22T14:06:59.800Z,1.10
2023-03-22T14:09:32.411Z,1.00
2023-03-22T14:12:07.064Z,1.10
2023-03-22T14:14:42.955Z,0.90
2023-03-22T14:17:21.487Z,1.05
2023-03-22T14:19:53.456Z,0.90
